Quick Links (Output Below):   Max & Min Temps   /   Climate Reports   /   Zone Forecasts
River Forecasts   /   Forestry Forecasts   /   Aviation Forecasts   /   Radars   /   Features

Terminal Aerodrome Forecast (Harrison)

Pick a Site:
Arkadelphia | El Dorado | Fayetteville | Fort Smith | Harrison | Highfill | Hot Springs | Jonesboro
Little Rock | Monticello | Mountain Home | Pine Bluff | Texarkana
 Forecast 

KHRO 310520Z 3106/0106 32007KT P6SM SCT050
     FM311200 35012G22KT P6SM SCT020 BKN050
      TEMPO 3115/3119 BKN020
     FM312100 36008G16KT P6SM SKC=


 Latest METARs (Observations) 
How to Decode METARs
09Z KHRO 310853Z AUTO 32007KT 10SM CLR 09/05 A3013 RMK AO2 SLP195
         T00940050 53009
         
08Z KHRO 310753Z AUTO 31008KT 10SM CLR 10/04 A3011 RMK AO2 SLP189
         T01000044
         
07Z KHRO 310653Z AUTO 31008KT 10SM CLR 11/04 A3011 RMK AO2 SLP189
         T01060044
         
06Z KHRO 310553Z AUTO 30006KT 10SM CLR 11/04 A3010 RMK AO2 SLP187
         T01110044 10156 20111 402110039 51007
         
05Z KHRO 310453Z AUTO 31007KT 10SM CLR 12/04 A3010 RMK AO2 SLP185
         T01170044
         
04Z KHRO 310353Z AUTO 30007KT 10SM CLR 12/04 A3009 RMK AO2 SLP184
         T01220044
         
03Z KHRO 310253Z AUTO 30007KT 10SM CLR 13/04 A3008 RMK AO2 SLP181
         T01330044 53013
         
02Z KHRO 310153Z AUTO 30006KT 10SM CLR 14/05 A3006 RMK AO2 SLP178
         T01390050
         
01Z KHRO 310053Z AUTO 29006KT 10SM CLR 14/06 A3005 RMK AO2 SLP174
         T01440056
         
00Z KHRO 302353Z AUTO 30004KT 10SM CLR 16/06 A3004 RMK AO2 SLP171
         60000 T01560056 10211 20156 53010
         
***** Today's Observations (Above) *****


Back to Main Page
http://www.srh.noaa.gov/lzk/qfcst.php

USA.gov is the U.S. government's official web portal to all federal, state and local government web resources and services.